Terminal Aerodrome Forecast
Issued by NWS

Home | Current Version | Previous Version | Text Only | Print | Product List | Glossary On
Versions: 1 2 3 4 5 6 7 8 9 10 11 12 13 14 15 16 17 18 19 20 21 22 23
000
FTAK31 PANC 260257 AAA
TAFAGK
TAF AMD
PAGK 260257Z 2603/2624 00000KT 1 1/2SM -SN BR FEW022 OVC028
      TEMPO 2603/2607 3SM -SN BR OVC010
     FM261500 00000KT P6SM VCSH BKN035=

USA.gov is the U.S. government's official web portal to all federal, state and local government web resources and services.